KFEW/FEW METAR and TAF weather

Enter ICAO airport designator
Station Type Date Time Source
KFEW METAR 2020/06/06 00:58 UTC NOAA

KFEW 060058Z AUTO 14004KT 10SM BKN130 27/M01 A3002 RMK AO2 SHRAE05RAB05E07 SLP083 T02741006 $


Station Type Date Time Source
KFEW Decoded METAR 2020/06/06 00:58 UTC NOAA

Station name not available
Jun 05, 2020 - 08:58 PM EDT / 2020.06.06 0058 UTC
Wind: from the SE (140 degrees) at 5 MPH (4 KT):0
Visibility: 10 mile(s):0
Sky conditions: mostly cloudy
Temperature: 81.3 F (27.4 C)
Dew Point: 30.9 F (-0.6 C)
Relative Humidity: 16%
Pressure (altimeter): 30.02 in. Hg (1016 hPa)
ob: KFEW 060058Z AUTO 14004KT 10SM BKN130 27/M01 A3002 RMK AO2 SHRAE05RAB05E07 SLP083 T02741006
cycle: 1

Station Type Date Time Source
KFEW TAF UTC NOAA

Error!

Example: see airport list